createdAt,value
2018-07-01T00:00:37.796Z,15.30
2018-07-01T00:03:13.350Z,15.30
2018-07-01T00:05:50.174Z,15.20
2018-07-01T00:08:26.640Z,15.20
2018-07-01T00:11:02.201Z,15.20
2018-07-01T00:13:37.016Z,15.10
2018-07-01T00:16:13.711Z,15.10
2018-07-01T00:24:06.684Z,14.90
2018-07-01T00:26:42.130Z,14.80
2018-07-01T00:29:18.011Z,14.70
2018-07-01T00:31:53.533Z,14.70
2018-07-01T00:34:29.958Z,14.60
2018-07-01T00:37:05.800Z,14.50
2018-07-01T00:39:44.539Z,14.50
2018-07-01T00:42:23.308Z,14.40
2018-07-01T00:44:57.981Z,14.40
2018-07-01T00:47:32.554Z,14.30
2018-07-01T00:52:43.300Z,14.20
2018-07-01T00:55:18.680Z,14.20
2018-07-01T00:57:53.064Z,14.10
2018-07-01T01:00:32.026Z,14.00
2018-07-01T01:03:06.514Z,14.00
2018-07-01T01:05:42.908Z,14.00
2018-07-01T01:08:19.625Z,14.00
2018-07-01T01:10:53.888Z,13.90
2018-07-01T01:13:30.428Z,13.90
2018-07-01T01:16:06.821Z,13.80
2018-07-01T01:18:41.307Z,13.70
2018-07-01T01:21:16.043Z,13.70
2018-07-01T01:23:50.259Z,13.60
2018-07-01T01:26:24.438Z,13.60
2018-07-01T01:28:59.128Z,13.50
2018-07-01T01:31:35.073Z,13.50
2018-07-01T01:34:09.484Z,13.40
2018-07-01T01:36:44.484Z,13.40
2018-07-01T01:39:23.149Z,13.30
2018-07-01T01:42:06.016Z,13.20
2018-07-01T01:44:47.036Z,13.20
2018-07-01T01:47:28.457Z,13.20
2018-07-01T01:50:10.849Z,13.10
2018-07-01T01:52:51.956Z,13.10
2018-07-01T01:55:36.114Z,13.00
2018-07-01T01:58:18.725Z,13.10
2018-07-01T02:01:06.128Z,13.00
2018-07-01T02:03:53.139Z,13.00
2018-07-01T02:06:30.577Z,13.00
2018-07-01T02:09:14.750Z,12.90
2018-07-01T02:11:53.992Z,12.90
2018-07-01T02:14:35.199Z,12.80
2018-07-01T02:17:14.774Z,12.80
2018-07-01T02:19:51.212Z,12.80
2018-07-01T02:22:34.916Z,12.70
2018-07-01T02:25:13.176Z,12.70
2018-07-01T02:27:48.620Z,12.60
2018-07-01T02:30:25.541Z,12.60
2018-07-01T02:33:02.424Z,12.50
2018-07-01T02:35:41.585Z,12.50
2018-07-01T02:38:17.995Z,12.50
2018-07-01T02:40:53.375Z,12.50
2018-07-01T02:43:28.028Z,12.40
2018-07-01T02:46:04.128Z,12.40
2018-07-01T02:48:40.241Z,12.30
2018-07-01T02:51:15.533Z,12.30
2018-07-01T02:53:49.915Z,12.30
2018-07-01T02:56:24.662Z,12.30
2018-07-01T02:58:59.101Z,12.30
2018-07-01T03:01:36.446Z,12.20
2018-07-01T03:04:12.797Z,12.20
2018-07-01T03:06:47.857Z,12.20
2018-07-01T03:09:23.076Z,12.20
2018-07-01T03:11:59.431Z,12.10
2018-07-01T03:14:34.065Z,12.10
2018-07-01T03:17:08.712Z,12.10
2018-07-01T03:19:45.101Z,12.10
2018-07-01T03:22:23.475Z,12.10
2018-07-01T03:24:58.117Z,12.10
2018-07-01T03:27:38.077Z,12.10
2018-07-01T03:30:14.297Z,12.10
2018-07-01T03:32:49.148Z,12.10
2018-07-01T03:35:24.020Z,12.10
2018-07-01T03:37:58.696Z,12.10
2018-07-01T03:40:33.823Z,12.10
2018-07-01T03:43:08.256Z,12.10
2018-07-01T03:45:42.580Z,12.10
2018-07-01T03:48:17.614Z,12.10
2018-07-01T03:50:52.763Z,12.10
2018-07-01T03:53:29.782Z,12.20
2018-07-01T03:56:04.178Z,12.20
2018-07-01T03:58:40.044Z,12.30
2018-07-01T04:01:16.117Z,12.30
2018-07-01T04:03:51.983Z,12.40
2018-07-01T04:06:27.192Z,12.50
2018-07-01T04:09:09.004Z,12.60
2018-07-01T04:11:45.373Z,12.70
2018-07-01T04:14:21.397Z,12.80
2018-07-01T04:16:56.059Z,12.80
2018-07-01T04:19:36.597Z,12.90
2018-07-01T04:22:13.728Z,13.00
2018-07-01T04:24:49.133Z,13.00
2018-07-01T04:27:24.665Z,13.10
2018-07-01T04:29:59.106Z,13.10
2018-07-01T04:32:34.017Z,13.20
2018-07-01T04:35:10.638Z,13.20
2018-07-01T04:37:46.667Z,13.30
2018-07-01T04:40:22.669Z,13.40
2018-07-01T04:42:57.105Z,13.40
2018-07-01T04:45:32.955Z,13.50
2018-07-01T04:48:08.221Z,13.60
2018-07-01T04:50:44.839Z,13.70
2018-07-01T04:53:22.191Z,13.70
2018-07-01T04:56:02.652Z,13.90
2018-07-01T04:58:38.922Z,13.90
2018-07-01T05:01:14.229Z,14.00
2018-07-01T05:03:50.365Z,14.10
2018-07-01T05:06:26.564Z,14.20
2018-07-01T05:09:03.748Z,14.30
2018-07-01T05:11:38.988Z,14.40
2018-07-01T05:14:15.616Z,14.40
2018-07-01T05:16:51.725Z,14.50
2018-07-01T05:19:27.784Z,14.60
2018-07-01T05:22:08.807Z,14.70
2018-07-01T05:24:44.899Z,14.80
2018-07-01T05:27:21.200Z,14.80
2018-07-01T05:29:55.605Z,15.00
2018-07-01T05:32:30.971Z,15.00
2018-07-01T05:35:06.487Z,15.10
2018-07-01T05:37:42.856Z,15.20
2018-07-01T05:40:18.501Z,15.20
2018-07-01T05:42:56.029Z,15.30
2018-07-01T05:45:31.861Z,15.40
2018-07-01T05:48:07.565Z,15.50
2018-07-01T05:50:42.361Z,15.60
2018-07-01T05:53:17.509Z,15.70
2018-07-01T05:55:53.824Z,15.70
2018-07-01T05:58:29.264Z,15.80
2018-07-01T06:01:03.631Z,15.90
2018-07-01T06:03:40.837Z,16.10
2018-07-01T06:06:18.376Z,16.10
2018-07-01T06:08:52.903Z,16.20
2018-07-01T06:11:27.550Z,16.30
2018-07-01T06:14:01.937Z,16.40
2018-07-01T06:16:38.238Z,16.40
2018-07-01T06:19:14.550Z,16.40
2018-07-01T06:21:48.898Z,16.50
2018-07-01T06:24:23.163Z,16.50
2018-07-01T06:26:57.585Z,16.50
2018-07-01T06:29:35.041Z,16.60
2018-07-01T06:32:10.124Z,16.70
2018-07-01T06:34:44.865Z,16.80
2018-07-01T06:37:24.622Z,16.90
2018-07-01T06:39:59.603Z,17.00
2018-07-01T06:42:35.368Z,17.10
2018-07-01T06:45:13.345Z,17.10
2018-07-01T06:47:49.452Z,17.20
2018-07-01T06:50:26.573Z,17.20
2018-07-01T06:53:03.898Z,17.30
2018-07-01T06:55:38.592Z,17.40
2018-07-01T06:58:15.600Z,17.40
2018-07-01T07:00:51.012Z,17.40
2018-07-01T07:03:26.363Z,17.40
2018-07-01T07:06:01.863Z,17.50
2018-07-01T07:08:38.276Z,17.70
2018-07-01T07:11:13.252Z,17.70
2018-07-01T07:13:50.417Z,17.90
2018-07-01T07:16:26.393Z,18.00
2018-07-01T07:19:01.451Z,18.00
2018-07-01T07:21:35.700Z,18.00
2018-07-01T07:24:12.740Z,18.10
2018-07-01T07:26:48.666Z,18.10
2018-07-01T07:29:23.900Z,18.10
2018-07-01T07:31:58.800Z,18.20
2018-07-01T07:34:33.949Z,18.30
2018-07-01T07:37:11.571Z,18.30
2018-07-01T07:39:46.824Z,18.30
2018-07-01T07:42:24.695Z,18.40
2018-07-01T07:45:01.354Z,18.40
2018-07-01T07:47:37.514Z,18.30
2018-07-01T07:50:15.983Z,18.30
2018-07-01T07:52:51.732Z,18.40
2018-07-01T07:55:29.840Z,18.70
2018-07-01T08:00:45.651Z,18.90
2018-07-01T08:03:23.541Z,19.00
2018-07-01T08:05:57.912Z,19.10
2018-07-01T08:08:33.635Z,19.20
2018-07-01T08:11:09.180Z,19.30
2018-07-01T08:13:45.169Z,19.20
2018-07-01T08:16:19.524Z,19.10
2018-07-01T08:18:56.114Z,19.00
2018-07-01T08:21:30.649Z,19.20
2018-07-01T08:24:06.365Z,19.30
2018-07-01T08:29:18.280Z,19.70
2018-07-01T08:31:58.725Z,19.80
2018-07-01T08:34:34.115Z,19.70
2018-07-01T08:37:10.184Z,19.80
2018-07-01T08:39:44.492Z,20.00
2018-07-01T08:42:37.100Z,19.90
2018-07-01T08:45:11.989Z,19.90
2018-07-01T08:47:51.371Z,19.90
2018-07-01T08:50:27.620Z,20.10
2018-07-01T08:53:02.107Z,20.20
2018-07-01T08:55:37.964Z,20.10
2018-07-01T08:58:13.304Z,20.10
2018-07-01T09:00:50.996Z,20.10
2018-07-01T09:03:29.396Z,19.90
2018-07-01T09:06:04.609Z,19.80
2018-07-01T09:08:39.904Z,19.90
2018-07-01T09:11:16.720Z,20.10
2018-07-01T09:16:28.242Z,20.20
2018-07-01T09:19:03.277Z,20.40
2018-07-01T09:21:38.110Z,20.50
2018-07-01T09:24:12.684Z,20.60
2018-07-01T09:26:51.964Z,20.80
2018-07-01T09:29:27.781Z,20.80
2018-07-01T09:32:04.728Z,20.80
2018-07-01T09:34:39.357Z,20.90
2018-07-01T09:37:19.948Z,20.90
2018-07-01T09:39:56.727Z,20.90
2018-07-01T09:42:31.109Z,21.10
2018-07-01T09:45:07.092Z,21.20
2018-07-01T09:47:42.472Z,21.20
2018-07-01T09:50:17.013Z,21.30
2018-07-01T09:52:51.284Z,21.40
2018-07-01T09:55:25.788Z,21.40
2018-07-01T09:58:00.440Z,21.00
2018-07-01T10:00:34.854Z,20.80
2018-07-01T10:03:10.618Z,21.00
2018-07-01T10:05:44.878Z,21.10
2018-07-01T10:08:22.913Z,20.90
2018-07-01T10:10:58.889Z,20.60
2018-07-01T10:13:33.524Z,20.50
2018-07-01T10:16:13.656Z,20.60
2018-07-01T10:19:03.349Z,20.60
2018-07-01T10:21:46.679Z,20.70
2018-07-01T10:24:22.408Z,20.70
2018-07-01T10:26:59.600Z,20.90
2018-07-01T10:29:34.668Z,21.10
2018-07-01T10:32:10.423Z,21.30
2018-07-01T10:34:45.349Z,21.40
2018-07-01T10:40:06.905Z,21.50
2018-07-01T10:42:45.022Z,21.60
2018-07-01T10:45:20.653Z,21.70
2018-07-01T10:48:00.360Z,21.90
2018-07-01T10:50:37.005Z,22.00
2018-07-01T10:53:11.494Z,22.00
2018-07-01T10:55:45.766Z,21.80
2018-07-01T10:58:20.598Z,21.70
2018-07-01T11:00:56.360Z,21.80
2018-07-01T11:03:35.796Z,21.80
2018-07-01T11:06:11.743Z,21.80
2018-07-01T11:08:46.254Z,21.90
2018-07-01T11:11:22.577Z,22.00
2018-07-01T11:13:58.160Z,22.00
2018-07-01T11:16:40.601Z,22.10
2018-07-01T11:19:17.472Z,22.00
2018-07-01T11:21:51.878Z,22.00
2018-07-01T11:24:26.115Z,21.90
2018-07-01T11:27:01.151Z,21.90
2018-07-01T11:29:36.183Z,21.90
2018-07-01T11:32:11.139Z,21.90
2018-07-01T11:34:51.249Z,22.00
2018-07-01T11:37:28.325Z,22.10
2018-07-01T11:40:09.875Z,22.20
2018-07-01T11:42:44.573Z,22.50
2018-07-01T11:45:21.579Z,22.70
2018-07-01T11:47:57.495Z,22.50
2018-07-01T11:50:33.501Z,22.40
2018-07-01T11:53:08.157Z,22.40
2018-07-01T11:55:42.525Z,22.60
2018-07-01T11:58:18.491Z,22.80
2018-07-01T12:01:04.609Z,22.80
2018-07-01T12:03:42.086Z,23.00
2018-07-01T12:06:19.872Z,23.10
2018-07-01T12:08:59.019Z,23.40
2018-07-01T12:11:40.852Z,23.80
2018-07-01T12:14:16.752Z,24.30
2018-07-01T12:19:32.888Z,25.10
2018-07-01T12:22:10.464Z,25.50
2018-07-01T12:24:54.220Z,26.10
2018-07-01T12:27:30.257Z,26.70
2018-07-01T12:30:10.025Z,27.10
2018-07-01T12:32:45.569Z,26.70
2018-07-01T12:35:21.007Z,26.80
2018-07-01T12:37:57.793Z,27.60
2018-07-01T12:40:34.629Z,28.30
2018-07-01T12:43:09.917Z,28.90
2018-07-01T12:45:48.862Z,28.60
2018-07-01T12:48:24.645Z,28.00
2018-07-01T12:51:00.036Z,28.50
2018-07-01T12:53:35.372Z,29.50
2018-07-01T12:56:09.720Z,29.30
2018-07-01T12:58:45.296Z,29.70
2018-07-01T13:01:20.658Z,29.40
2018-07-01T13:04:03.972Z,28.60
2018-07-01T13:06:39.208Z,28.40
2018-07-01T13:09:13.885Z,29.80
2018-07-01T13:11:49.935Z,31.10
2018-07-01T13:14:30.726Z,31.70
2018-07-01T13:17:05.488Z,32.60
2018-07-01T13:19:42.847Z,32.40
2018-07-01T13:22:21.016Z,33.00
2018-07-01T13:24:55.357Z,32.60
2018-07-01T13:27:31.640Z,32.20
2018-07-01T13:30:07.165Z,32.00
2018-07-01T13:32:43.229Z,31.90
2018-07-01T13:35:19.999Z,31.10
2018-07-01T13:37:56.378Z,31.20
2018-07-01T13:40:31.993Z,31.30
2018-07-01T13:43:07.792Z,31.40
2018-07-01T13:45:46.411Z,32.00
2018-07-01T13:48:21.553Z,32.80
2018-07-01T13:50:58.217Z,33.70
2018-07-01T13:53:33.449Z,33.70
2018-07-01T13:56:08.751Z,33.40
2018-07-01T13:58:44.087Z,34.00
2018-07-01T14:01:19.079Z,34.80
2018-07-01T14:03:55.024Z,33.90
2018-07-01T14:06:29.519Z,34.00
2018-07-01T14:09:06.208Z,34.10
2018-07-01T14:11:40.586Z,33.80
2018-07-01T14:14:16.799Z,34.90
2018-07-01T14:16:54.017Z,36.40
2018-07-01T14:19:29.184Z,36.40
2018-07-01T14:22:04.958Z,35.80
2018-07-01T14:24:39.846Z,35.60
2018-07-01T14:27:18.401Z,35.50
2018-07-01T14:29:52.797Z,35.90
2018-07-01T14:32:27.163Z,35.40
2018-07-01T14:35:02.264Z,35.50
2018-07-01T14:37:36.757Z,35.80
2018-07-01T14:40:12.397Z,36.20
2018-07-01T14:42:46.688Z,36.70
2018-07-01T14:45:21.073Z,37.70
2018-07-01T14:47:55.493Z,38.70
2018-07-01T14:50:29.970Z,38.60
2018-07-01T14:53:04.685Z,38.50
2018-07-01T14:55:39.369Z,36.40
2018-07-01T14:58:16.103Z,35.40
2018-07-01T15:00:51.586Z,35.20
2018-07-01T15:03:26.514Z,36.30
2018-07-01T15:06:10.034Z,36.90
2018-07-01T15:08:44.286Z,37.40
2018-07-01T15:11:18.612Z,38.70
2018-07-01T15:13:52.961Z,39.50
2018-07-01T15:16:27.952Z,39.10
2018-07-01T15:19:03.733Z,39.50
2018-07-01T15:21:39.724Z,40.50
2018-07-01T15:24:14.054Z,40.10
2018-07-01T15:26:48.297Z,39.90
2018-07-01T15:29:22.788Z,39.80
2018-07-01T15:31:57.225Z,40.10
2018-07-01T15:34:31.544Z,39.60
2018-07-01T15:37:05.821Z,39.20
2018-07-01T15:39:40.077Z,38.60
2018-07-01T15:42:14.383Z,38.30
2018-07-01T15:44:48.776Z,38.80
2018-07-01T15:47:25.172Z,38.60
2018-07-01T15:49:59.628Z,39.30
2018-07-01T15:52:34.635Z,39.00
2018-07-01T15:57:44.012Z,39.40
2018-07-01T16:00:18.468Z,39.20
2018-07-01T16:02:53.108Z,40.30
2018-07-01T16:05:27.782Z,40.00
2018-07-01T16:08:04.010Z,40.50
2018-07-01T16:10:38.555Z,40.60
2018-07-01T16:13:13.042Z,41.00
2018-07-01T16:15:47.479Z,41.20
2018-07-01T16:18:21.795Z,40.70
2018-07-01T16:23:30.932Z,40.00
2018-07-01T16:26:13.458Z,41.40
2018-07-01T16:28:54.019Z,40.80
2018-07-01T16:31:34.446Z,41.10
2018-07-01T16:34:08.889Z,42.00
2018-07-01T16:36:44.060Z,42.00
2018-07-01T16:39:20.070Z,41.30
2018-07-01T16:41:54.628Z,41.00
2018-07-01T16:44:29.768Z,42.00
2018-07-01T16:47:04.195Z,42.30
2018-07-01T16:49:40.604Z,42.70
2018-07-01T16:52:16.705Z,42.90
2018-07-01T16:54:53.847Z,43.30
2018-07-01T16:57:28.710Z,43.20
2018-07-01T17:00:05.793Z,43.10
2018-07-01T17:02:41.449Z,42.60
2018-07-01T17:05:17.251Z,42.50
2018-07-01T17:07:54.992Z,43.40
2018-07-01T17:10:30.575Z,42.90
2018-07-01T17:13:07.760Z,42.70
2018-07-01T17:15:44.657Z,42.10
2018-07-01T17:18:19.978Z,41.50
2018-07-01T17:20:59.969Z,40.90
2018-07-01T17:23:36.051Z,41.40
2018-07-01T17:26:15.854Z,41.50
2018-07-01T17:31:30.314Z,42.10
2018-07-01T17:34:05.491Z,42.10
2018-07-01T17:36:44.067Z,41.60
2018-07-01T17:39:22.446Z,41.20
2018-07-01T17:41:58.942Z,40.60
2018-07-01T17:44:38.461Z,40.70
2018-07-01T17:47:14.282Z,40.20
2018-07-01T17:49:50.263Z,40.20
2018-07-01T17:52:26.083Z,40.00
2018-07-01T17:55:00.599Z,40.10
2018-07-01T17:57:35.728Z,39.60
2018-07-01T18:00:11.360Z,39.30
2018-07-01T18:02:46.496Z,39.30
2018-07-01T18:05:20.806Z,38.80
2018-07-01T18:08:03.799Z,38.20
2018-07-01T18:10:38.761Z,38.00
2018-07-01T18:13:16.535Z,37.60
2018-07-01T18:15:53.227Z,37.60
2018-07-01T18:18:27.840Z,37.70
2018-07-01T18:21:03.535Z,37.30
2018-07-01T18:24:11.117Z,37.20
2018-07-01T18:26:13.350Z,37.20
2018-07-01T18:29:02.567Z,37.20
2018-07-01T18:31:28.361Z,36.40
2018-07-01T18:34:04.283Z,35.50
2018-07-01T18:36:40.932Z,35.00
2018-07-01T18:39:16.096Z,34.50
2018-07-01T18:41:51.031Z,33.80
2018-07-01T18:44:29.519Z,33.50
2018-07-01T18:47:05.726Z,32.50
2018-07-01T18:49:41.601Z,30.90
2018-07-01T18:52:15.926Z,29.40
2018-07-01T18:54:50.355Z,28.00
2018-07-01T18:57:29.486Z,26.90
2018-07-01T19:00:05.597Z,26.10
2018-07-01T19:02:40.948Z,25.30
2018-07-01T19:05:16.525Z,24.90
2018-07-01T19:07:51.774Z,24.50
2018-07-01T19:10:28.264Z,24.30
2018-07-01T19:13:07.391Z,24.10
2018-07-01T19:15:44.123Z,23.70
2018-07-01T19:18:19.034Z,23.60
2018-07-01T19:20:54.002Z,23.30
2018-07-01T19:23:28.310Z,23.30
2018-07-01T19:26:10.089Z,23.00
2018-07-01T19:28:44.369Z,22.80
2018-07-01T19:31:19.193Z,22.60
2018-07-01T19:33:53.363Z,22.40
2018-07-01T19:36:29.313Z,22.20
2018-07-01T19:39:06.145Z,22.00
2018-07-01T19:41:40.773Z,21.90
2018-07-01T19:44:15.132Z,21.80
2018-07-01T19:46:51.590Z,21.60
2018-07-01T19:49:26.045Z,21.40
2018-07-01T19:52:02.101Z,21.30
2018-07-01T19:54:37.939Z,21.10
2018-07-01T19:57:12.831Z,21.00
2018-07-01T19:59:48.444Z,20.90
2018-07-01T20:02:23.026Z,20.80
2018-07-01T20:04:57.728Z,20.70
2018-07-01T20:07:32.044Z,20.60
2018-07-01T20:10:06.268Z,20.40
2018-07-01T20:13:03.326Z,20.30
2018-07-01T20:18:39.277Z,20.10
2018-07-01T20:21:13.842Z,19.90
2018-07-01T20:23:49.219Z,19.80
2018-07-01T20:26:24.143Z,19.80
2018-07-01T20:31:34.122Z,19.60
2018-07-01T20:37:08.890Z,19.40
2018-07-01T20:39:45.840Z,19.30
2018-07-01T20:42:24.214Z,19.20
2018-07-01T20:45:00.744Z,19.20
2018-07-01T20:47:35.975Z,19.10
2018-07-01T20:50:16.089Z,19.00
2018-07-01T20:52:51.501Z,18.90
2018-07-01T20:55:27.014Z,18.80
2018-07-01T20:58:02.664Z,18.80
2018-07-01T21:00:37.701Z,18.70
2018-07-01T21:03:13.447Z,18.70
2018-07-01T21:05:51.116Z,18.60
2018-07-01T21:08:26.961Z,18.60
2018-07-01T21:13:42.925Z,18.40
2018-07-01T21:16:29.545Z,18.40
2018-07-01T21:19:05.935Z,18.30
2018-07-01T21:21:43.027Z,18.20
2018-07-01T21:24:34.118Z,18.20
2018-07-01T21:27:15.645Z,18.10
2018-07-01T21:29:50.984Z,18.00
2018-07-01T21:32:28.118Z,17.90
2018-07-01T21:37:56.812Z,17.70
2018-07-01T21:40:31.261Z,17.60
2018-07-01T21:43:06.868Z,17.60
2018-07-01T21:45:50.817Z,17.60
2018-07-01T21:48:30.533Z,17.50
2018-07-01T21:51:05.257Z,17.30
2018-07-01T21:53:40.480Z,17.20
2018-07-01T21:56:15.409Z,17.30
2018-07-01T21:58:50.966Z,17.20
2018-07-01T22:01:27.328Z,17.20
2018-07-01T22:04:01.849Z,17.20
2018-07-01T22:06:41.873Z,17.20
2018-07-01T22:12:03.185Z,17.10
2018-07-01T22:14:48.934Z,17.10
2018-07-01T22:17:23.144Z,17.10
2018-07-01T22:19:57.429Z,17.00
2018-07-01T22:22:31.789Z,17.00
2018-07-01T22:25:06.740Z,17.00
2018-07-01T22:27:42.045Z,16.90
2018-07-01T22:30:17.260Z,16.80
2018-07-01T22:32:54.578Z,16.70
2018-07-01T22:35:29.715Z,16.70
2018-07-01T22:38:07.155Z,16.60
2018-07-01T22:40:43.080Z,16.50
2018-07-01T22:43:19.139Z,16.50
2018-07-01T22:45:54.688Z,16.50
2018-07-01T22:48:29.923Z,16.40
2018-07-01T22:51:07.540Z,16.40
2018-07-01T22:53:46.392Z,16.30
2018-07-01T22:56:22.095Z,16.30
2018-07-01T22:58:58.208Z,16.30
2018-07-01T23:01:35.694Z,16.20
2018-07-01T23:04:10.832Z,16.20
2018-07-01T23:06:46.261Z,16.10
2018-07-01T23:09:21.173Z,16.20
2018-07-01T23:11:57.540Z,16.20
2018-07-01T23:14:33.909Z,16.10
2018-07-01T23:17:09.108Z,16.20
2018-07-01T23:19:44.665Z,16.30
2018-07-01T23:22:21.321Z,16.40
2018-07-01T23:24:55.568Z,16.40
2018-07-01T23:27:30.795Z,16.40
2018-07-01T23:30:05.034Z,16.30
2018-07-01T23:32:40.505Z,16.30
2018-07-01T23:35:14.968Z,16.30
2018-07-01T23:37:50.511Z,16.30
2018-07-01T23:40:24.824Z,16.20
2018-07-01T23:43:01.628Z,16.10
2018-07-01T23:45:40.569Z,16.10
2018-07-01T23:48:15.623Z,16.10
2018-07-01T23:50:50.575Z,16.00
2018-07-01T23:53:25.500Z,15.90
2018-07-01T23:56:02.377Z,15.80
2018-07-01T23:58:39.465Z,15.70
